Main page
METAR-TAF:

Airports :

Brussels, Belgium

Brussels Airport

latitude: 50-54N, longitude: 004-32E, elevation: 55 m

Current weather observation

The report was made 19 minutes ago, at 22:50 UTC
Wind 1 kt from variable directions
Temperature 20°C
Humidity 78%
Pressure 1018 hPa
Visibility 10 km or more
no clouds below 1500 m and no cumulonimbus

METAR: EBBR 242250Z VRB01KT CAVOK 20/16 Q1018 NOSIG

Time: 01:09 (23:09 UTC)

Forecast

The report was made 5 hours and 57 minutes ago, at 17:12 UTC
Forecast valid from 24 at 18 UTC to 25 at 24 UTC
Wind 4 kt from the South/Southeast
Visibility 10 km or more
no clouds below 1500 m and no cumulonimbus

TAF: EBBR 241712Z 2418/2524 15004KT CAVOK

METAR-TAF

Weather observations and forecasts of more than 4000 airports (METAR and TAF reports).

The available stations are represented by yellow and red dots on the map.

Hover mouse over dot to see the name of the station.

Then click to see weather observations and forecasts.

To change the map : click on the green buttons with a black cross to zoom in, on the green button with a dash to zoom out, or on the green arrows for adjacent maps.


METAR-TAF: